• Join FlightAware (Why Join?)
  • Login
  • US Flag 
08:59AM EST


 

Airport Tracker/Info


-or-


 

Live Flight TrackerFlight Track Log ✈ LAN935 ✈ 15-Jul-2014 ✈ SAME / MDZ - SCEL / SCL

Flight Track Log - Related Links

Times and Time Zones

All times are in EDT time to prevent confusion due to time zone crossing. See the LAN935 flight status page for this flight to view local times or setup timezone preferences in your user account.

Time Position Orientation Groundspeed Altitude Reporting Facility
EDT Latitude Longitude Course Direction KTS MPH feet Rate Location/Type
12:09PM -32.8810 -69.9296 268° West 327 376 27,200  Level FlightAware ADS-B
12:10PM -32.8832 -70.0024 272° West 315 362 26,100 -1,140 Descending FlightAware ADS-B
12:11PM -32.8784 -70.0563 276° West 319 367 25,900 -1,920 Descending FlightAware ADS-B
12:11PM -32.8739 -70.1081 276° West 331 381 24,200 -3,300 Descending FlightAware ADS-B
12:12PM -32.8673 -70.1829 276° West 340 391 22,100 -3,120 Descending FlightAware ADS-B
12:12PM -32.8620 -70.2392 277° West 340 391 20,600 -2,820 Descending FlightAware ADS-B
12:13PM -32.8567 -70.2949 277° West 338 389 19,300 -2,580 Descending FlightAware ADS-B
12:13PM -32.8496 -70.3681 277° West 333 383 17,600 -2,580 Descending FlightAware ADS-B
12:14PM -32.8428 -70.4397 276° West 333 383 15,900 -2,640 Descending FlightAware ADS-B
12:15PM -32.8370 -70.5052 276° West 339 390 14,200 -2,400 Descending FlightAware ADS-B
12:15PM -32.8310 -70.5684 276° West 326 375 13,100 -1,980 Descending FlightAware ADS-B
12:16PM -32.8248 -70.6349 277° West 303 349 11,900 -1,680 Descending FlightAware ADS-B
12:16PM -32.8213 -70.6840 265° West 289 333 11,200 -1,380 Descending FlightAware ADS-B
12:17PM -32.8244 -70.6985 252° West 295 339 11,000 -960 Descending FlightAware ADS-B
12:17PM -32.8324 -70.7144 237° Southwest 302 348 10,900 -900 Descending FlightAware ADS-B
12:17PM -32.8406 -70.7244 224° Southwest 306 352 10,700 -1,500 Descending FlightAware ADS-B
12:17PM -32.8699 -70.7562 222° Southwest 304 350 9,900 -1,320 Descending FlightAware ADS-B
12:18PM -32.8938 -70.7819 223° Southwest 296 341 9,600 -780 Descending FlightAware ADS-B
12:18PM -32.9145 -70.8035 216° Southwest 283 326 9,400 -600 Descending FlightAware ADS-B
12:18PM -32.9259 -70.8103 199° South 286 329 9,300 -900 Descending FlightAware ADS-B
12:18PM -32.9370 -70.8133 188° South 289 333 9,100 -1,200 Descending FlightAware ADS-B
12:19PM -32.9622 -70.8169 187° South 285 328 8,700 -1,080 Descending FlightAware ADS-B
12:19PM -32.9944 -70.8215 187° South 278 320 8,400 -1,080 Descending FlightAware ADS-B
12:19PM -33.0167 -70.8227 179° South 280 322 8,000 -1,320 Descending FlightAware ADS-B
12:20PM -33.0398 -70.8216 178° South 276 318 7,600 -1,200 Descending FlightAware ADS-B
12:20PM -33.0699 -70.8202 178° South 269 310 7,200 -960 Descending FlightAware ADS-B
12:21PM -33.1030 -70.8190 179° South 246 283 6,800 -1,140 Descending FlightAware ADS-B
12:21PM -33.1249 -70.8185 179° South 221 254 6,300 -1,320 Descending FlightAware ADS-B
12:21PM -33.1465 -70.8168 171° South 199 229 5,900 -1,200 Descending FlightAware ADS-B
12:22PM -33.1627 -70.8150 177° South 177 204 5,500 -1,200 Descending FlightAware ADS-B
12:22PM -33.1796 -70.8141 178° South 159 183 5,100 -1,200 Descending FlightAware ADS-B
12:22PM -33.1889 -70.8136 177° South 152 175 4,700 -780 Descending FlightAware ADS-B
12:23PM -33.2055 -70.8128 178° South 146 168 4,600 -600 Descending FlightAware ADS-B
12:23PM -33.2201 -70.8119 178° South 142 163 4,300 -900 Descending FlightAware ADS-B
12:23PM -33.2336 -70.8112 178° South 138 159 4,000 -960 Descending FlightAware ADS-B
12:24PM -33.2455 -70.8105 177° South 135 155 3,700 -780 Descending FlightAware ADS-B
12:24PM -33.2576 -70.8099 177° South 133 153 3,500 -600 Descending FlightAware ADS-B
12:24PM -33.2693 -70.8093 177° South 133 153 3,300 -780 Descending FlightAware ADS-B
12:25PM -33.2834 -70.8085 178° South 135 155 3,000 -780 Descending FlightAware ADS-B
12:25PM -33.2956 -70.8078 177° South 138 159 2,800 -660 Descending FlightAware ADS-B
12:25PM -33.3138 -70.8069 177° South 139 160 2,500 -720 Descending FlightAware ADS-B
12:26PM -33.3286 -70.8061 177° South 138 159 2,200 -780 Descending FlightAware ADS-B
12:26PM -33.3399 -70.8055 177° South 136 157 2,000 -780 Descending FlightAware ADS-B
12:26PM -33.3543 -70.8048 178° South 135 155 1,700 -780 Descending FlightAware ADS-B
12:27PM -33.3654 -70.8041 178° South 136 157 1,500 -720 Descending FlightAware ADS-B
12:29PM -33.3930 -70.7858 120° Southeast  Level Estimated